Galesburg, ND

9:16 PM CST on December 19, 2014 (GMT -0600)
NDDOT Buxton I-29 MP 114 | Change Station
CLOSE
Current Station
Personal Weather Station
Location: Buxton, ND
Elevation: 930 ft
Nearby Weather Stations

Elev 930 ft 47.54 °N, 97.08 °W | Updated 44 minutes ago

Overcast
Overcast
30 °F
Feels Like 24 °F
N
6
Wind Variable Wind from South
Gusts 13.0 mph

Today
High -- | Low -- °F
--% Chance of Precip.
Yesterday
High -- | Low -- °F
Precip. -- in
8:12 AM 4:40 PM
Waning Crescent, 5% visible
Pressure 30.05 in
Visibility 6.0 miles
Clouds Overcast 1000 ft
Windchill 24 °F
Dew Point 29 °F
Humidity 98%
Rainfall -999.00 in
Snow Depth Not available.
UV 0 out of 12
Pollen .10 out of 12
Air Quality Not available.
Flu Activity Not available.
METAR KFAR 200253Z 16010KT 6SM BR OVC010 00/M02 A3001 RMK AO2 CIG 008V013 SLP176 T00001022 58007

More Conditions Fewer Conditions

Pressure 30.05 in
Visibility 6.0 miles
Clouds Overcast 1000 ft
Windchill 24 °F
Dew Point 29 °F
Humidity 98%
Rainfall -999.00 in
Snow Depth Not available.
UV 0 out of 12
Pollen .10 out of 12
Air Quality Not available.
Flu Activity Not available.
METAR KFAR 200253Z 16010KT 6SM BR OVC010 00/M02 A3001 RMK AO2 CIG 008V013 SLP176 T00001022 58007

More Conditions Fewer Conditions

10-Day Weather Forecast

Almanac

Astronomy

Dec. 19, 2014 Rise Set
Actual Time
Civil Twilight
Nautical Twilight
Astronomical Twilight
Moon
Length of Visible Light
Length of Day
Tomorrow will be .
, % of the Moon is Illuminated

Today's Extremes

State Highs State Lows

Community

WunderPhotos

Upload Photos

1,779,123 photos uploaded!

WunderBlogs® & News

Nearby

Air Quality

  Air Quality AQ Index Pollutant
Not available.

Snow Depth

Station Depth Elevation

Earthquake Activity

City Distance Mag. Time & Date
Minimum magnitude displayed is 2.5.

Coastal Water Temperatures

Place Temperature

Nearby Weather Stations